createdAt,value
2022-09-13T00:02:43.901Z,37.50
2022-09-13T00:07:46.960Z,37.90
2022-09-13T00:12:50.205Z,37.60
2022-09-13T00:17:54.689Z,38.00
2022-09-13T00:22:57.797Z,38.50
2022-09-13T00:28:00.908Z,38.40
2022-09-13T00:33:05.484Z,38.50
2022-09-13T00:38:08.593Z,38.80
2022-09-13T00:43:18.906Z,38.40
2022-09-13T00:48:25.657Z,39.40
2022-09-13T00:53:34.425Z,39.20
2022-09-13T00:58:41.816Z,39.50
2022-09-13T01:03:48.594Z,39.30
2022-09-13T01:08:54.592Z,39.40
2022-09-13T01:13:58.718Z,39.50
2022-09-13T01:19:03.198Z,39.30
2022-09-13T01:24:49.825Z,39.40
2022-09-13T01:30:21.924Z,39.50
2022-09-13T01:35:31.545Z,39.50
2022-09-13T01:40:50.649Z,39.30
2022-09-13T01:46:05.079Z,39.60
2022-09-13T01:51:13.313Z,39.40
2022-09-13T01:56:22.744Z,39.10
2022-09-13T02:01:32.491Z,39.10
2022-09-13T02:06:41.625Z,39.30
2022-09-13T02:11:48.363Z,39.00
2022-09-13T02:16:57.827Z,39.20
2022-09-13T02:22:03.181Z,39.40
2022-09-13T02:27:10.132Z,39.10
2022-09-13T02:32:18.450Z,39.10
2022-09-13T02:37:22.833Z,38.90
2022-09-13T02:42:31.817Z,38.80
2022-09-13T02:47:48.895Z,39.10
2022-09-13T02:53:02.637Z,39.50
2022-09-13T02:58:11.792Z,39.40
2022-09-13T03:03:17.619Z,39.10
2022-09-13T03:08:21.708Z,38.90
2022-09-13T03:13:54.522Z,38.80
2022-09-13T03:19:13.124Z,39.20
2022-09-13T03:24:22.957Z,39.30
2022-09-13T03:29:32.360Z,39.10
2022-09-13T03:34:44.557Z,39.00
2022-09-13T03:39:54.035Z,39.20
2022-09-13T03:44:59.480Z,39.20
2022-09-13T03:50:04.814Z,39.60
2022-09-13T03:55:08.447Z,39.10
2022-09-13T04:00:15.004Z,39.00
2022-09-13T04:05:19.521Z,39.60
2022-09-13T04:10:24.268Z,39.40
2022-09-13T04:15:27.372Z,39.30
2022-09-13T04:20:32.002Z,39.20
2022-09-13T04:25:35.138Z,39.40
2022-09-13T04:30:42.499Z,38.90
2022-09-13T04:35:47.217Z,38.80
2022-09-13T04:40:55.070Z,39.40
2022-09-13T04:46:01.990Z,39.80
2022-09-13T04:51:06.757Z,39.90
2022-09-13T04:56:10.514Z,39.80
2022-09-13T05:01:13.885Z,39.70
2022-09-13T05:06:19.573Z,40.00
2022-09-13T05:11:23.935Z,40.40
2022-09-13T05:16:28.609Z,40.00
2022-09-13T05:21:33.246Z,40.60
2022-09-13T05:26:36.451Z,41.00
2022-09-13T05:31:41.804Z,40.90
2022-09-13T05:36:48.432Z,41.50
2022-09-13T05:41:54.973Z,41.80
2022-09-13T05:46:58.300Z,41.50
2022-09-13T05:52:03.075Z,41.90
2022-09-13T05:57:06.254Z,42.50
2022-09-13T06:02:11.005Z,42.00
2022-09-13T06:07:15.856Z,42.80
2022-09-13T06:12:18.986Z,43.10
2022-09-13T06:17:22.117Z,42.90
2022-09-13T06:22:33.062Z,43.10
2022-09-13T06:27:36.201Z,44.40
2022-09-13T06:32:39.340Z,43.80
2022-09-13T06:37:43.937Z,44.30
2022-09-13T06:42:46.977Z,45.00
2022-09-13T06:47:50.074Z,44.90
2022-09-13T06:52:54.525Z,45.20
2022-09-13T06:57:57.611Z,45.30
2022-09-13T07:03:00.708Z,45.40
2022-09-13T07:08:05.246Z,45.60
2022-09-13T07:13:08.318Z,46.00
2022-09-13T07:18:11.404Z,46.00
2022-09-13T07:23:15.854Z,46.20
2022-09-13T07:28:22.232Z,46.30
2022-09-13T07:33:25.561Z,46.10
2022-09-13T07:38:30.261Z,46.20
2022-09-13T07:43:34.007Z,46.90
2022-09-13T07:48:39.249Z,45.90
2022-09-13T07:53:45.455Z,45.90
2022-09-13T07:58:50.063Z,46.30
2022-09-13T08:03:54.525Z,45.50
2022-09-13T08:08:59.449Z,45.30
2022-09-13T08:14:03.281Z,45.20
2022-09-13T08:19:07.803Z,45.00
2022-09-13T08:24:15.941Z,44.90
2022-09-13T08:29:19.438Z,45.60
2022-09-13T08:34:22.533Z,44.70
2022-09-13T08:39:29.281Z,44.60
2022-09-13T08:44:37.496Z,44.80
2022-09-13T08:49:45.475Z,45.30
2022-09-13T08:54:54.918Z,44.30
2022-09-13T09:00:08.012Z,44.30
2022-09-13T09:05:17.837Z,44.20
2022-09-13T09:10:25.638Z,43.80
2022-09-13T09:15:36.078Z,43.40
2022-09-13T09:20:42.612Z,43.40
2022-09-13T09:25:47.463Z,43.00
2022-09-13T09:30:58.776Z,42.60
2022-09-13T09:36:08.020Z,42.20
2022-09-13T09:41:27.497Z,41.50
2022-09-13T09:46:33.949Z,41.30
2022-09-13T09:51:37.190Z,41.20
2022-09-13T09:56:54.222Z,41.50
2022-09-13T10:01:58.171Z,40.50
2022-09-13T10:07:20.454Z,40.70
2022-09-13T10:12:30.164Z,40.50
2022-09-13T10:17:33.482Z,39.80
2022-09-13T10:22:36.584Z,40.60
2022-09-13T10:27:43.842Z,40.10
2022-09-13T10:32:57.321Z,38.30
2022-09-13T10:38:00.529Z,38.10
2022-09-13T10:43:08.423Z,38.30
2022-09-13T10:54:33.376Z,37.30
2022-09-13T10:59:37.822Z,38.20
2022-09-13T11:05:07.229Z,36.90
2022-09-13T11:10:19.616Z,36.50
2022-09-13T11:15:36.408Z,35.40
2022-09-13T11:20:48.274Z,34.80
2022-09-13T11:26:07.225Z,35.50
2022-09-13T11:31:26.490Z,36.10
2022-09-13T11:36:47.233Z,35.50
2022-09-13T11:42:00.586Z,35.40
2022-09-13T11:47:12.696Z,35.10
2022-09-13T11:52:27.008Z,35.00
2022-09-13T11:57:35.435Z,34.40
2022-09-13T12:02:44.855Z,35.40
2022-09-13T12:07:52.336Z,35.20
2022-09-13T12:12:56.702Z,34.50
2022-09-13T12:18:05.648Z,36.00
2022-09-13T12:23:15.790Z,35.60
2022-09-13T12:28:24.807Z,35.20
2022-09-13T12:33:29.625Z,35.30
2022-09-13T12:39:00.630Z,35.30
2022-09-13T12:44:42.510Z,34.50
2022-09-13T12:50:21.555Z,34.50
2022-09-13T12:55:47.452Z,32.80
2022-09-13T13:01:10.947Z,33.00
2022-09-13T13:06:33.395Z,33.20
2022-09-13T13:11:47.374Z,33.20
2022-09-13T13:16:50.451Z,31.70
2022-09-13T13:21:55.037Z,33.30
2022-09-13T13:26:59.623Z,32.40
2022-09-13T13:32:13.559Z,32.90
2022-09-13T13:37:39.025Z,32.00
2022-09-13T13:42:45.224Z,32.20
2022-09-13T13:48:09.952Z,32.50
2022-09-13T13:53:23.753Z,31.20
2022-09-13T13:58:32.875Z,32.00
2022-09-13T14:04:07.269Z,31.60
2022-09-13T14:09:33.101Z,32.30
2022-09-13T14:14:54.190Z,31.90
2022-09-13T14:20:01.736Z,33.10
2022-09-13T14:25:24.279Z,33.70
2022-09-13T14:30:32.744Z,33.90
2022-09-13T14:35:38.101Z,33.10
2022-09-13T14:40:42.617Z,33.50
2022-09-13T14:45:50.081Z,33.40
2022-09-13T14:50:58.398Z,34.40
2022-09-13T14:56:07.560Z,34.50
2022-09-13T15:01:13.265Z,35.30
2022-09-13T15:06:27.597Z,34.80
2022-09-13T15:11:36.974Z,35.40
2022-09-13T15:16:49.304Z,35.80
2022-09-13T15:21:52.601Z,36.10
2022-09-13T15:27:05.693Z,35.50
2022-09-13T15:32:22.656Z,35.70
2022-09-13T15:37:35.281Z,35.20
2022-09-13T15:42:39.797Z,35.40
2022-09-13T15:47:45.819Z,35.30
2022-09-13T15:52:49.013Z,35.20
2022-09-13T15:57:53.762Z,35.70
2022-09-13T16:02:57.049Z,35.80
2022-09-13T16:08:00.389Z,35.70
2022-09-13T16:13:04.850Z,35.50
2022-09-13T16:18:07.902Z,35.70
2022-09-13T16:23:11.205Z,35.50
2022-09-13T16:28:18.533Z,35.90
2022-09-13T16:33:21.820Z,37.00
2022-09-13T16:38:25.004Z,37.00
2022-09-13T16:43:29.512Z,36.90
2022-09-13T16:48:32.618Z,37.20
2022-09-13T16:53:36.879Z,37.40
2022-09-13T16:58:43.367Z,37.60
2022-09-13T17:03:46.677Z,38.20
2022-09-13T17:08:52.008Z,37.50
2022-09-13T17:13:56.727Z,37.90
2022-09-13T17:19:01.542Z,38.10
2022-09-13T17:24:08.007Z,38.10
2022-09-13T17:29:15.574Z,37.90
2022-09-13T17:34:19.345Z,38.40
2022-09-13T17:39:22.583Z,37.90
2022-09-13T17:44:27.341Z,37.90
2022-09-13T17:49:30.541Z,38.40
2022-09-13T17:54:33.860Z,38.30
2022-09-13T17:59:38.599Z,38.50
2022-09-13T18:04:41.688Z,38.80
2022-09-13T18:09:44.840Z,38.50
2022-09-13T18:14:49.368Z,38.80
2022-09-13T18:19:52.434Z,39.30
2022-09-13T18:24:55.552Z,39.10
2022-09-13T18:30:00.056Z,39.10
2022-09-13T18:35:03.382Z,39.50
2022-09-13T18:40:13.988Z,39.30
2022-09-13T18:45:18.793Z,39.30
2022-09-13T18:50:21.893Z,39.60
2022-09-13T18:55:25.032Z,39.40
2022-09-13T19:00:29.993Z,39.40
2022-09-13T19:05:35.193Z,40.00
2022-09-13T19:10:39.054Z,39.70
2022-09-13T19:15:43.542Z,39.60
2022-09-13T19:20:46.714Z,40.00
2022-09-13T19:25:49.925Z,39.80
2022-09-13T19:30:54.447Z,39.80
2022-09-13T19:35:57.544Z,40.20
2022-09-13T19:41:02.603Z,40.10
2022-09-13T19:46:08.723Z,40.10
2022-09-13T19:51:15.042Z,40.00
2022-09-13T19:56:19.234Z,39.90
2022-09-13T20:01:25.718Z,39.90
2022-09-13T20:06:30.343Z,39.80
2022-09-13T20:11:37.583Z,39.80
2022-09-13T20:16:44.904Z,39.80
2022-09-13T20:21:49.609Z,39.70
2022-09-13T20:26:52.834Z,39.60
2022-09-13T20:31:59.599Z,39.60
2022-09-13T20:37:03.101Z,39.60
2022-09-13T20:42:06.629Z,39.50
2022-09-13T20:47:11.829Z,39.40
2022-09-13T20:52:14.993Z,39.80
2022-09-13T20:57:18.077Z,39.30
2022-09-13T21:02:22.860Z,39.50
2022-09-13T21:07:43.380Z,40.10
2022-09-13T21:12:50.330Z,39.70
2022-09-13T21:17:54.937Z,39.50
2022-09-13T21:22:58.063Z,39.90
2022-09-13T21:28:01.239Z,40.00
2022-09-13T21:33:05.926Z,39.90
2022-09-13T21:38:09.046Z,40.50
2022-09-13T21:43:12.160Z,40.20
2022-09-13T21:48:16.630Z,40.50
2022-09-13T21:53:20.048Z,40.80
2022-09-13T21:58:23.234Z,40.50
2022-09-13T22:03:27.676Z,40.60
2022-09-13T22:08:32.530Z,41.10
2022-09-13T22:13:36.609Z,41.30
2022-09-13T22:18:41.773Z,41.00
2022-09-13T22:23:45.004Z,41.50
2022-09-13T22:28:48.537Z,41.30
2022-09-13T22:33:55.084Z,41.60
2022-09-13T22:38:58.745Z,42.20
2022-09-13T22:44:03.316Z,41.80
2022-09-13T22:49:09.112Z,41.90
2022-09-13T22:54:12.466Z,42.20
2022-09-13T22:59:17.698Z,41.90
2022-09-13T23:04:22.438Z,42.30
2022-09-13T23:09:25.665Z,42.40
2022-09-13T23:14:28.774Z,42.20
2022-09-13T23:19:34.377Z,42.30
2022-09-13T23:24:37.540Z,42.60
2022-09-13T23:29:40.856Z,42.30
2022-09-13T23:34:45.307Z,42.50
2022-09-13T23:39:48.450Z,42.90
2022-09-13T23:44:51.601Z,42.70
2022-09-13T23:49:56.144Z,42.80
2022-09-13T23:55:00.287Z,43.20
